^^
Garrymore Weather Station Historical Data
Daily Summary for February 18, 2020 Units:  Both    English   Metric
Daily Weekly Monthly Yearly Custom
  High: Low: Average:
Temperature: 41 °F /  5 °C 35.6 °F /  2 °C 37.9 °F /  3.3 °C
Dew Point: 35.6 °F /  2 °C 28.4 °F /  -2 °C 32.4 °F /  0.2 °C
Humidity: 87% 75% 80%
Wind Speed: 16.2mph /  26km/h - 8mph /  12.9km/h
Wind Gust: 24.9mph /  40km/h - -
Wind- - SSW
Pressure: 30.1 in /  1017.88 hPa 30 in /  1015.82 hPa -
Precipitation: 0.18 in /  4.5 mm    
Historical Graphs
 
 
Tabular Data for February 18, 2020
Time Temperature Dew Point Pressure Wind Wind Speed Wind Gust Humidity Rainfall Rate (Hourly) solar
00:00 37.4 °F /  3 °C 32 °F /  0 °C 30in /  1017.41hPa W 8.7mph /  14km/h 14.9mph /  24km/h 79% 0in /  0mm 0 W/m2
00:05 37.4 °F /  3 °C 32 °F /  0 °C 30in /  1017.31hPa SW 6.8mph /  11km/h 14.9mph /  24km/h 79% 0in /  0mm 0 W/m2
00:10 37.4 °F /  3 °C 32 °F /  0 °C 30in /  1017.2hPa SW 8.7mph /  14km/h 14.9mph /  24km/h 78% 0in /  0mm 0 W/m2
00:15 37.4 °F /  3 °C 32 °F /  0 °C 30.1in /  1017.51hPa WSW 8.1mph /  13km/h 14.3mph /  23km/h 78% 0in /  0mm 0 W/m2
00:20 37.4 °F /  3 °C 32 °F /  0 °C 30.1in /  1017.58hPa SW 8.1mph /  13km/h 16.8mph /  27km/h 78% 0in /  0mm 0 W/m2
00:25 37.4 °F /  3 °C 32 °F /  0 °C 30.1in /  1017.68hPa SW 8.1mph /  13km/h 16.2mph /  26km/h 77% 0in /  0mm 0 W/m2
00:30 37.4 °F /  3 °C 32 °F /  0 °C 30.1in /  1017.51hPa SW 6.2mph /  10km/h 14.9mph /  24km/h 77% 0in /  0mm 0 W/m2
00:35 37.4 °F /  3 °C 32 °F /  0 °C 30.1in /  1017.61hPa SW 6.8mph /  11km/h 14.3mph /  23km/h 77% 0in /  0mm 0 W/m2
00:40 37.4 °F /  3 °C 30.2 °F /  -1 °C 30.1in /  1017.51hPa SW 8.1mph /  13km/h 14.3mph /  23km/h 77% 0in /  0mm 0 W/m2
00:45 37.4 °F /  3 °C 30.2 °F /  -1 °C 30.1in /  1017.58hPa SSW 8.1mph /  13km/h 14.3mph /  23km/h 77% 0in /  0mm 0 W/m2
00:50 37.4 °F /  3 °C 30.2 °F /  -1 °C 30in /  1017.41hPa SSW 6.2mph /  10km/h 11.8mph /  19km/h 77% 0in /  0mm 0 W/m2
00:55 37.4 °F /  3 °C 30.2 °F /  -1 °C 30.1in /  1017.51hPa S 6.8mph /  11km/h 13mph /  21km/h 78% 0in /  0mm 0 W/m2
01:00 37.4 °F /  3 °C 30.2 °F /  -1 °C 30.1in /  1017.51hPa S 6.8mph /  11km/h 11.2mph /  18km/h 78% 0in /  0mm 0 W/m2
01:05 37.4 °F /  3 °C 30.2 °F /  -1 °C 30.1in /  1017.61hPa S 8.1mph /  13km/h 9.9mph /  16km/h 78% 0in /  0mm 0 W/m2
01:10 35.6 °F /  2 °C 30.2 °F /  -1 °C 30.1in /  1017.81hPa S 6.2mph /  10km/h 9.9mph /  16km/h 80% 0in /  0mm 0 W/m2
01:15 35.6 °F /  2 °C 30.2 °F /  -1 °C 30.1in /  1017.88hPa S 5mph /  8km/h 8.1mph /  13km/h 81% 0in /  0mm 0 W/m2
01:20 35.6 °F /  2 °C 30.2 °F /  -1 °C 30.1in /  1017.78hPa S 6.2mph /  10km/h 11.2mph /  18km/h 81% 0in /  0mm 0 W/m2
01:25 35.6 °F /  2 °C 30.2 °F /  -1 °C 30.1in /  1017.68hPa S 8.1mph /  13km/h 9.9mph /  16km/h 82% 0in /  0mm 0 W/m2
01:30 35.6 °F /  2 °C 28.4 °F /  -2 °C 30in /  1017.41hPa S 6.2mph /  10km/h 11.8mph /  19km/h 78% 0in /  0mm 0 W/m2
01:35 35.6 °F /  2 °C 30.2 °F /  -1 °C 30in /  1017.41hPa S 6.8mph /  11km/h 11.8mph /  19km/h 79% 0in /  0mm 0 W/m2
01:40 35.6 °F /  2 °C 30.2 °F /  -1 °C 30in /  1017.41hPa SSW 8.1mph /  13km/h 11.8mph /  19km/h 79% 0in /  0mm 0 W/m2
01:45 35.6 °F /  2 °C 30.2 °F /  -1 °C 30in /  1017.31hPa SSW 6.8mph /  11km/h 11.2mph /  18km/h 79% 0in /  0mm 0 W/m2
01:50 35.6 °F /  2 °C 30.2 °F /  -1 °C 30in /  1017.31hPa S 6.8mph /  11km/h 11.2mph /  18km/h 80% 0in /  0mm 0 W/m2
01:55 35.6 °F /  2 °C 30.2 °F /  -1 °C 30in /  1017.2hPa S 8.7mph /  14km/h 11.8mph /  19km/h 80% 0in /  0mm 0 W/m2
02:00 35.6 °F /  2 °C 30.2 °F /  -1 °C 30in /  1017.31hPa S 8.1mph /  13km/h 14.9mph /  24km/h 80% 0in /  0mm 0 W/m2
02:05 35.6 °F /  2 °C 30.2 °F /  -1 °C 30in /  1017.2hPa S 6.8mph /  11km/h 13mph /  21km/h 81% 0in /  0mm 0 W/m2
02:10 35.6 °F /  2 °C 30.2 °F /  -1 °C 30in /  1017.14hPa S 6.8mph /  11km/h 13mph /  21km/h 81% 0in /  0mm 0 W/m2
02:15 35.6 °F /  2 °C 30.2 °F /  -1 °C 30in /  1017.2hPa S 6.2mph /  10km/h 13mph /  21km/h 81% 0in /  0mm 0 W/m2
02:20 35.6 °F /  2 °C 30.2 °F /  -1 °C 30in /  1017.2hPa S 6.2mph /  10km/h 11.2mph /  18km/h 81% 0in /  0mm 0 W/m2
02:25 35.6 °F /  2 °C 30.2 °F /  -1 °C 30in /  1017.2hPa SSW 6.8mph /  11km/h 13mph /  21km/h 82% 0in /  0mm 0 W/m2
02:30 35.6 °F /  2 °C 32 °F /  0 °C 30in /  1017.31hPa SSW 6.8mph /  11km/h 13mph /  21km/h 86% 0in /  0mm 0 W/m2
02:35 35.6 °F /  2 °C 32 °F /  0 °C 30in /  1017.31hPa S 6.8mph /  11km/h 11.2mph /  18km/h 86% 0in /  0mm 0 W/m2
02:40 35.6 °F /  2 °C 32 °F /  0 °C 30in /  1017.31hPa S 6.2mph /  10km/h 19.9mph /  32km/h 86% 0in /  0mm 0 W/m2
02:45 37.4 °F /  3 °C 33.8 °F /  1 °C 30in /  1017.2hPa SSW 9.9mph /  16km/h 19.9mph /  32km/h 87% 0in /  0mm 0 W/m2
02:50 37.4 °F /  3 °C 33.8 °F /  1 °C 30in /  1017.1hPa SW 8.7mph /  14km/h 16.8mph /  27km/h 87% 0in /  0mm 0 W/m2
02:55 39.2 °F /  4 °C 35.6 °F /  2 °C 30in /  1017hPa SW 8.7mph /  14km/h 23mph /  37km/h 86% 0in /  0mm 0 W/m2
03:00 39.2 °F /  4 °C 33.8 °F /  1 °C 30in /  1017.17hPa SW 14.9mph /  24km/h 21.7mph /  35km/h 83% 0in /  0mm 0 W/m2
03:05 39.2 °F /  4 °C 33.8 °F /  1 °C 30in /  1016.9hPa SW 13mph /  21km/h 21.7mph /  35km/h 83% 0in /  0mm 0 W/m2
03:10 39.2 °F /  4 °C 33.8 °F /  1 °C 30in /  1017.07hPa SW 8.7mph /  14km/h 16.8mph /  27km/h 80% 0in /  0mm 0 W/m2
03:15 39.2 °F /  4 °C 33.8 °F /  1 °C 30in /  1016.8hPa SW 8.1mph /  13km/h 14.9mph /  24km/h 78% 0in /  0mm 0 W/m2
03:20 39.2 °F /  4 °C 33.8 °F /  1 °C 30in /  1017.1hPa SW 6.2mph /  10km/h 14.9mph /  24km/h 77% 0in /  0mm 0 W/m2
03:25 39.2 °F /  4 °C 33.8 °F /  1 °C 30in /  1017.03hPa SSW 6.2mph /  10km/h 11.8mph /  19km/h 77% 0in /  0mm 0 W/m2
03:30 39.2 °F /  4 °C 32 °F /  0 °C 30in /  1017hPa SW 6.2mph /  10km/h 14.9mph /  24km/h 77% 0in /  0mm 0 W/m2
03:35 39.2 °F /  4 °C 33.8 °F /  1 °C 30in /  1016.9hPa SSW 6.2mph /  10km/h 11.8mph /  19km/h 79% 0in /  0mm 0 W/m2
03:40 39.2 °F /  4 °C 33.8 °F /  1 °C 30in /  1016.8hPa S 8.7mph /  14km/h 13mph /  21km/h 81% 0in /  0mm 0 W/m2
03:45 37.4 °F /  3 °C 32 °F /  0 °C 30in /  1016.7hPa S 6.2mph /  10km/h 11.8mph /  19km/h 81% 0in /  0mm 0 W/m2
03:50 37.4 °F /  3 °C 32 °F /  0 °C 30in /  1016.8hPa S 8.1mph /  13km/h 11.8mph /  19km/h 81% 0in /  0mm 0 W/m2
03:55 37.4 °F /  3 °C 32 °F /  0 °C 30in /  1016.59hPa S 6.8mph /  11km/h 14.9mph /  24km/h 83% 0in /  0mm 0 W/m2
04:00 37.4 °F /  3 °C 32 °F /  0 °C 30in /  1016.49hPa SSW 6.2mph /  10km/h 16.2mph /  26km/h 83% 0in /  0mm 0 W/m2
04:05 37.4 °F /  3 °C 32 °F /  0 °C 30in /  1016.49hPa SSW 8.1mph /  13km/h 16.2mph /  26km/h 84% 0in /  0mm 0 W/m2
04:10 37.4 °F /  3 °C 32 °F /  0 °C 30in /  1016.59hPa SSW 8.7mph /  14km/h 14.9mph /  24km/h 84% 0in /  0mm 0 W/m2
04:15 37.4 °F /  3 °C 33.8 °F /  1 °C 30in /  1016.49hPa SSW 8.7mph /  14km/h 14.9mph /  24km/h 84% 0in /  0mm 0 W/m2
04:20 39.2 °F /  4 °C 33.8 °F /  1 °C 30in /  1016.42hPa SSW 9.9mph /  16km/h 21.1mph /  34km/h 85% 0in /  0mm 0 W/m2
04:25 39.2 °F /  4 °C 35.6 °F /  2 °C 30in /  1016.59hPa SSW 14.3mph /  23km/h 21.1mph /  34km/h 84% 0in /  0mm 0 W/m2
04:30 39.2 °F /  4 °C 35.6 °F /  2 °C 30in /  1016.39hPa SW 8.7mph /  14km/h 19.9mph /  32km/h 83% 0in /  0mm 0 W/m2
04:35 41 °F /  5 °C 35.6 °F /  2 °C 30in /  1016.32hPa WSW 11.8mph /  19km/h 19.9mph /  32km/h 81% 0in /  0mm 0 W/m2
04:40 41 °F /  5 °C 35.6 °F /  2 °C 30in /  1016.29hPa SW 9.9mph /  16km/h 21.1mph /  34km/h 80% 0in /  0mm 0 W/m2
04:45 41 °F /  5 °C 35.6 °F /  2 °C 30in /  1016.19hPa SW 9.9mph /  16km/h 19.9mph /  32km/h 79% 0in /  0mm 0 W/m2
04:50 41 °F /  5 °C 33.8 °F /  1 °C 30in /  1016.12hPa SW 11.8mph /  19km/h 19.9mph /  32km/h 77% 0in /  0mm 0 W/m2
04:55 41 °F /  5 °C 33.8 °F /  1 °C 30in /  1016.02hPa SW 11.8mph /  19km/h 21.1mph /  34km/h 76% 0in /  0mm 0 W/m2
05:00 41 °F /  5 °C 33.8 °F /  1 °C 30in /  1015.98hPa SSW 11.8mph /  19km/h 24.9mph /  40km/h 76% 0in /  0mm 0 W/m2
05:05 41 °F /  5 °C 33.8 °F /  1 °C 30in /  1015.98hPa SSW 13mph /  21km/h 16.2mph /  26km/h 76% 0in /  0mm 0 W/m2
05:10 41 °F /  5 °C 33.8 °F /  1 °C 30in /  1015.82hPa SW 13mph /  21km/h 19.9mph /  32km/h 75% 0in /  0mm 0 W/m2
05:15 41 °F /  5 °C 33.8 °F /  1 °C 30in /  1015.98hPa SW 9.9mph /  16km/h 21.1mph /  34km/h 75% 0in /  0mm 0 W/m2
05:20 41 °F /  5 °C 33.8 °F /  1 °C 30in /  1016.12hPa SSW 16.2mph /  26km/h 23mph /  37km/h 75% 0in /  0mm 0 W/m2
05:25 41 °F /  5 °C 33.8 °F /  1 °C 30in /  1016.12hPa SSW 11.8mph /  19km/h 23mph /  37km/h 75% 0in /  0mm 0 W/m2
05:30 41 °F /  5 °C 33.8 °F /  1 °C 30in /  1016.29hPa SW 11.8mph /  19km/h 19.9mph /  32km/h 75% 0.01in /  0.3mm 0 W/m2
05:35 41 °F /  5 °C 33.8 °F /  1 °C 30in /  1016.49hPa W 8.7mph /  14km/h 19.9mph /  32km/h 76% 0in /  0mm 0 W/m2
05:40 41 °F /  5 °C 33.8 °F /  1 °C 30in /  1017hPa SW 11.8mph /  19km/h 21.1mph /  34km/h 79% 0.04in /  0.89mm 0 W/m2
05:45 39.2 °F /  4 °C 32 °F /  0 °C 30in /  1016.9hPa W 8.1mph /  13km/h 21.1mph /  34km/h 77% 0.12in /  3mm 0 W/m2
05:50 39.2 °F /  4 °C 32 °F /  0 °C 30in /  1016.59hPa NW 3.1mph /  5km/h 16.2mph /  26km/h 78% 0in /  0mm 0 W/m2
05:55 37.4 °F /  3 °C 32 °F /  0 °C 30in /  1016.59hPa W 6.2mph /  10km/h 14.3mph /  23km/h 78% 0in /  0mm 0 W/m2
06:00 37.4 °F /  3 °C 32 °F /  0 °C 30in /  1016.39hPa W 6.8mph /  11km/h 14.3mph /  23km/h 80% 0in /  0mm 0 W/m2
06:05 37.4 °F /  3 °C 32 °F /  0 °C 30in /  1016.39hPa WSW 8.1mph /  13km/h 14.3mph /  23km/h 81% 0in /  0mm 0 W/m2
06:10 37.4 °F /  3 °C 33.8 °F /  1 °C 30in /  1016.29hPa SSW 6.8mph /  11km/h 14.3mph /  23km/h 82% 0in /  0mm 0 W/m2
06:15 37.4 °F /  3 °C 33.8 °F /  1 °C 30in /  1016.19hPa SW 6.2mph /  10km/h 11.2mph /  18km/h 83% 0in /  0mm 0 W/m2
06:20 37.4 °F /  3 °C 33.8 °F /  1 °C 30in /  1016.19hPa SSW 5mph /  8km/h 8.7mph /  14km/h 83% 0in /  0mm 0 W/m2
06:25 37.4 °F /  3 °C 32 °F /  0 °C 30in /  1016.29hPa S 3.1mph /  5km/h 6.8mph /  11km/h 83% 0in /  0mm 0 W/m2
06:30 37.4 °F /  3 °C 32 °F /  0 °C 30in /  1016.19hPa S 5mph /  8km/h 8.1mph /  13km/h 84% 0in /  0mm 0 W/m2
06:35 37.4 °F /  3 °C 32 °F /  0 °C 30in /  1016.09hPa S 3.1mph /  5km/h 8.1mph /  13km/h 84% 0in /  0mm 0 W/m2
06:40 37.4 °F /  3 °C 33.8 °F /  1 °C 30in /  1016.29hPa S 5mph /  8km/h 8.1mph /  13km/h 84% 0in /  0mm 0 W/m2
06:45 37.4 °F /  3 °C 33.8 °F /  1 °C 30in /  1016.19hPa SSW 1.9mph /  3km/h 8.1mph /  13km/h 84% 0.01in /  0.3mm 0 W/m2
06:50 37.4 °F /  3 °C 33.8 °F /  1 °C 30in /  1016.53hPa NW 8.1mph /  13km/h 14.9mph /  24km/h 85% 0in /  0mm 0 W/m2
Garrymore Weather Station, Geashill, Tullamore, Offaly, Ireland
Compliments of Weather Underground - 2 mb